SRV160M LIEE-LICJ
Flight info
| Callsign | SRV160M |
|---|---|
| Flight time | 0h 40m |
| Altitude | 29000 |
| Route | CAR M871 NEVOT DCT ADAMI DCT KAPIL/N0405F190 M871 PAL |
| Aircraft | A319/M-SDE3FGHIRWY/LB1 |
Departure
| Time | 2026-05-08 17:33 |
|---|---|
| Airport | Cagliari Elmas Airport (LIEE) |
Arrival
| Time | 2026-05-08 18:13 |
|---|---|
| Airport | Falcone–Borsellino Airport (LICJ) |
| Time | Latitude | Longitude | Altitude | Speed | Heading |
|---|---|---|---|---|---|
| 2026-05-08 17:21 | 39.25289 | 9.05821 | 15 ft | 0 kts | 84° |
| 2026-05-08 17:26 | 39.25289 | 9.05820 | 15 ft | 1 kts | 83° |
| 2026-05-08 17:26 | 39.25286 | 9.05802 | 16 ft | 2 kts | 69° |
| 2026-05-08 17:27 | 39.25279 | 9.05785 | 15 ft | 2 kts | 54° |
| 2026-05-08 17:27 | 39.25269 | 9.05772 | 16 ft | 0 kts | 22° |
| 2026-05-08 17:27 | 39.25258 | 9.05772 | 15 ft | 2 kts | 328° |
| 2026-05-08 17:27 | 39.25256 | 9.05774 | 15 ft | 0 kts | 315° |
| 2026-05-08 17:28 | 39.25264 | 9.05764 | 17 ft | 4 kts | 313° |
| 2026-05-08 17:29 | 39.25290 | 9.05725 | 15 ft | 8 kts | 312° |
| 2026-05-08 17:29 | 39.25337 | 9.05666 | 15 ft | 11 kts | 317° |
| 2026-05-08 17:29 | 39.25391 | 9.05574 | 15 ft | 15 kts | 284° |
| 2026-05-08 17:29 | 39.25414 | 9.05435 | 15 ft | 17 kts | 289° |
| 2026-05-08 17:30 | 39.25492 | 9.05305 | 15 ft | 20 kts | 318° |
| 2026-05-08 17:30 | 39.25600 | 9.05179 | 15 ft | 22 kts | 318° |
| 2026-05-08 17:30 | 39.25720 | 9.05038 | 15 ft | 24 kts | 319° |
| 2026-05-08 17:30 | 39.25851 | 9.04886 | 15 ft | 26 kts | 320° |
| 2026-05-08 17:31 | 39.25993 | 9.04722 | 15 ft | 28 kts | 317° |
| 2026-05-08 17:31 | 39.26090 | 9.04615 | 15 ft | 0 kts | 323° |
| 2026-05-08 17:31 | 39.26114 | 9.04571 | 15 ft | 11 kts | 288° |
| 2026-05-08 17:31 | 39.26123 | 9.04452 | 15 ft | 15 kts | 259° |
| 2026-05-08 17:32 | 39.26059 | 9.04381 | 15 ft | 12 kts | 169° |
| 2026-05-08 17:32 | 39.25996 | 9.04448 | 14 ft | 15 kts | 139° |
| 2026-05-08 17:32 | 39.25742 | 9.04740 | 16 ft | 86 kts | 137° |
| 2026-05-08 17:32 | 39.25141 | 9.05437 | 15 ft | 143 kts | 138° |
| 2026-05-08 17:33 | 39.24312 | 9.06407 | 235 ft | 170 kts | 139° |
| 2026-05-08 17:33 | 39.23450 | 9.07409 | 1039 ft | 160 kts | 139° |
| 2026-05-08 17:33 | 39.22624 | 9.08353 | 1753 ft | 161 kts | 139° |
| 2026-05-08 17:33 | 39.21750 | 9.09352 | 2158 ft | 179 kts | 138° |
| 2026-05-08 17:34 | 39.20756 | 9.10493 | 2507 ft | 204 kts | 138° |
| 2026-05-08 17:34 | 39.19641 | 9.11783 | 3039 ft | 227 kts | 137° |
| 2026-05-08 17:34 | 39.18437 | 9.13178 | 3898 ft | 235 kts | 137° |
| 2026-05-08 17:34 | 39.17211 | 9.14602 | 4880 ft | 243 kts | 138° |
| 2026-05-08 17:35 | 39.15896 | 9.16127 | 5473 ft | 266 kts | 139° |
| 2026-05-08 17:35 | 39.14479 | 9.17768 | 6275 ft | 278 kts | 139° |
| 2026-05-08 17:35 | 39.13026 | 9.19448 | 7214 ft | 284 kts | 139° |
| 2026-05-08 17:35 | 39.11532 | 9.21175 | 8096 ft | 292 kts | 140° |
| 2026-05-08 17:36 | 39.09997 | 9.22949 | 9001 ft | 300 kts | 140° |
| 2026-05-08 17:36 | 39.08443 | 9.24742 | 9886 ft | 308 kts | 141° |
| 2026-05-08 17:36 | 39.06813 | 9.26620 | 10535 ft | 323 kts | 141° |
| 2026-05-08 17:36 | 39.05070 | 9.28620 | 10898 ft | 347 kts | 141° |
| 2026-05-08 17:37 | 39.03432 | 9.31021 | 11395 ft | 368 kts | 122° |
| 2026-05-08 17:37 | 39.02531 | 9.34144 | 12211 ft | 378 kts | 100° |
| 2026-05-08 17:37 | 39.02527 | 9.37539 | 13004 ft | 385 kts | 78° |
| 2026-05-08 17:37 | 39.03434 | 9.40785 | 13776 ft | 388 kts | 57° |
| 2026-05-08 17:38 | 39.05111 | 9.43505 | 14459 ft | 390 kts | 41° |
| 2026-05-08 17:38 | 39.06420 | 9.45093 | 14948 ft | 392 kts | 38° |
| 2026-05-08 17:38 | 39.08970 | 9.48441 | 15875 ft | 404 kts | 52° |
| 2026-05-08 17:38 | 39.10256 | 9.51697 | 16569 ft | 414 kts | 71° |
| 2026-05-08 17:39 | 39.10763 | 9.55363 | 17254 ft | 420 kts | 89° |
| 2026-05-08 17:39 | 39.10635 | 9.57901 | 17698 ft | 422 kts | 102° |
| 2026-05-08 17:39 | 39.09768 | 9.61458 | 18347 ft | 421 kts | 120° |
| 2026-05-08 17:39 | 39.08348 | 9.64760 | 18939 ft | 423 kts | 124° |
| 2026-05-08 17:40 | 39.06914 | 9.68088 | 19582 ft | 428 kts | 121° |
| 2026-05-08 17:40 | 39.05624 | 9.71583 | 20194 ft | 435 kts | 117° |
| 2026-05-08 17:40 | 39.04472 | 9.75214 | 20795 ft | 441 kts | 115° |
| 2026-05-08 17:40 | 39.03396 | 9.78932 | 21389 ft | 446 kts | 114° |
| 2026-05-08 17:41 | 39.02342 | 9.82706 | 21974 ft | 451 kts | 113° |
| 2026-05-08 17:41 | 39.01285 | 9.86532 | 22567 ft | 455 kts | 114° |
| 2026-05-08 17:41 | 39.00220 | 9.90385 | 23147 ft | 460 kts | 114° |
| 2026-05-08 17:41 | 38.99149 | 9.94242 | 23678 ft | 465 kts | 114° |
| 2026-05-08 17:42 | 38.98055 | 9.98168 | 24186 ft | 467 kts | 114° |
| 2026-05-08 17:42 | 38.96953 | 10.02109 | 24706 ft | 470 kts | 114° |
| 2026-05-08 17:42 | 38.95838 | 10.06085 | 25199 ft | 473 kts | 114° |
| 2026-05-08 17:42 | 38.94717 | 10.10076 | 25690 ft | 476 kts | 114° |
| 2026-05-08 17:43 | 38.93588 | 10.14085 | 26180 ft | 479 kts | 114° |
| 2026-05-08 17:43 | 38.92450 | 10.18121 | 26648 ft | 482 kts | 114° |
| 2026-05-08 17:43 | 38.91305 | 10.22174 | 27105 ft | 484 kts | 114° |
| 2026-05-08 17:43 | 38.90149 | 10.26260 | 27548 ft | 487 kts | 114° |
| 2026-05-08 17:44 | 38.88984 | 10.30369 | 27977 ft | 490 kts | 114° |
| 2026-05-08 17:44 | 38.87815 | 10.34491 | 28400 ft | 493 kts | 114° |
| 2026-05-08 17:44 | 38.86635 | 10.38641 | 28791 ft | 496 kts | 114° |
| 2026-05-08 17:44 | 38.85465 | 10.42750 | 29053 ft | 499 kts | 114° |
| 2026-05-08 17:45 | 38.83082 | 10.51109 | 29033 ft | 498 kts | 114° |
| 2026-05-08 17:45 | 38.80692 | 10.59463 | 29032 ft | 499 kts | 114° |
| 2026-05-08 17:46 | 38.78294 | 10.67817 | 29039 ft | 499 kts | 115° |
| 2026-05-08 17:46 | 38.75888 | 10.76171 | 29035 ft | 499 kts | 115° |
| 2026-05-08 17:47 | 38.73476 | 10.84524 | 29038 ft | 499 kts | 115° |
| 2026-05-08 17:47 | 38.71477 | 10.91423 | 29029 ft | 500 kts | 115° |
| 2026-05-08 17:48 | 38.68645 | 11.01178 | 29033 ft | 500 kts | 115° |
| 2026-05-08 17:48 | 38.66227 | 11.09492 | 29031 ft | 500 kts | 115° |
| 2026-05-08 17:49 | 38.63791 | 11.17841 | 29031 ft | 500 kts | 115° |
| 2026-05-08 17:49 | 38.61350 | 11.26179 | 29029 ft | 500 kts | 115° |
| 2026-05-08 17:50 | 38.58920 | 11.34456 | 29031 ft | 500 kts | 115° |
| 2026-05-08 17:50 | 38.56463 | 11.42795 | 29030 ft | 500 kts | 115° |
| 2026-05-08 17:51 | 38.54005 | 11.51113 | 29034 ft | 500 kts | 115° |
| 2026-05-08 17:51 | 38.51537 | 11.59436 | 29034 ft | 500 kts | 115° |
| 2026-05-08 17:52 | 38.49079 | 11.67703 | 29034 ft | 501 kts | 115° |
| 2026-05-08 17:53 | 38.45353 | 11.80191 | 29031 ft | 501 kts | 115° |
| 2026-05-08 17:53 | 38.42878 | 11.88451 | 29035 ft | 501 kts | 115° |
| 2026-05-08 17:54 | 38.40382 | 11.96756 | 29031 ft | 501 kts | 114° |
| 2026-05-08 17:54 | 38.37880 | 12.05057 | 28940 ft | 501 kts | 114° |
| 2026-05-08 17:54 | 38.36630 | 12.09194 | 28591 ft | 499 kts | 114° |
| 2026-05-08 17:55 | 38.35386 | 12.13312 | 28181 ft | 495 kts | 114° |
| 2026-05-08 17:55 | 38.34153 | 12.17397 | 27786 ft | 492 kts | 114° |
| 2026-05-08 17:55 | 38.32928 | 12.21461 | 27395 ft | 490 kts | 114° |
| 2026-05-08 17:55 | 38.31709 | 12.25500 | 27010 ft | 488 kts | 114° |
| 2026-05-08 17:56 | 38.30492 | 12.29526 | 26633 ft | 486 kts | 114° |
| 2026-05-08 17:56 | 38.29277 | 12.33539 | 26262 ft | 483 kts | 114° |
| 2026-05-08 17:56 | 38.28085 | 12.37469 | 25898 ft | 481 kts | 114° |
| 2026-05-08 17:56 | 38.26879 | 12.41436 | 25539 ft | 479 kts | 115° |
| 2026-05-08 17:57 | 38.25679 | 12.45381 | 25178 ft | 477 kts | 115° |
| 2026-05-08 17:57 | 38.24483 | 12.49307 | 24829 ft | 475 kts | 115° |
| 2026-05-08 17:57 | 38.23289 | 12.53218 | 24477 ft | 473 kts | 115° |
| 2026-05-08 17:57 | 38.22103 | 12.57100 | 24139 ft | 470 kts | 115° |
| 2026-05-08 17:58 | 38.20919 | 12.60969 | 23793 ft | 468 kts | 115° |
| 2026-05-08 17:58 | 38.19739 | 12.64818 | 23432 ft | 466 kts | 115° |
| 2026-05-08 17:58 | 38.18562 | 12.68653 | 23029 ft | 463 kts | 115° |
| 2026-05-08 17:58 | 38.17392 | 12.72461 | 22548 ft | 461 kts | 115° |
| 2026-05-08 17:59 | 38.16228 | 12.76244 | 21987 ft | 458 kts | 114° |
| 2026-05-08 17:59 | 38.15072 | 12.79997 | 21430 ft | 454 kts | 115° |
| 2026-05-08 17:59 | 38.13938 | 12.83674 | 20889 ft | 450 kts | 115° |
| 2026-05-08 17:59 | 38.12799 | 12.87361 | 20353 ft | 446 kts | 115° |
| 2026-05-08 18:00 | 38.11670 | 12.91013 | 19826 ft | 442 kts | 115° |
| 2026-05-08 18:00 | 38.09432 | 12.98234 | 18784 ft | 435 kts | 115° |
| 2026-05-08 18:00 | 38.08327 | 13.01792 | 18285 ft | 431 kts | 115° |
| 2026-05-08 18:01 | 38.07230 | 13.05320 | 17711 ft | 428 kts | 115° |
| 2026-05-08 18:01 | 38.06139 | 13.08821 | 17158 ft | 425 kts | 115° |
| 2026-05-08 18:01 | 38.05063 | 13.12296 | 16603 ft | 422 kts | 112° |
| 2026-05-08 18:01 | 38.04453 | 13.15888 | 16050 ft | 423 kts | 94° |
| 2026-05-08 18:02 | 38.04663 | 13.19595 | 15473 ft | 421 kts | 75° |
| 2026-05-08 18:02 | 38.05271 | 13.21966 | 15084 ft | 416 kts | 63° |
| 2026-05-08 18:02 | 38.07418 | 13.25865 | 14334 ft | 401 kts | 38° |
| 2026-05-08 18:02 | 38.09547 | 13.28114 | 13794 ft | 395 kts | 33° |
| 2026-05-08 18:03 | 38.11678 | 13.30309 | 13164 ft | 394 kts | 36° |
| 2026-05-08 18:03 | 38.13707 | 13.32649 | 12501 ft | 395 kts | 39° |
| 2026-05-08 18:03 | 38.15645 | 13.35132 | 11813 ft | 396 kts | 42° |
| 2026-05-08 18:03 | 38.17594 | 13.37589 | 11126 ft | 391 kts | 33° |
| 2026-05-08 18:04 | 38.19875 | 13.39285 | 10477 ft | 383 kts | 21° |
| 2026-05-08 18:04 | 38.22207 | 13.40931 | 9823 ft | 385 kts | 27° |
| 2026-05-08 18:04 | 38.24482 | 13.42724 | 9097 ft | 383 kts | 26° |
| 2026-05-08 18:04 | 38.26794 | 13.44383 | 8393 ft | 380 kts | 25° |
| 2026-05-08 18:05 | 38.29174 | 13.45736 | 7903 ft | 367 kts | 11° |
| 2026-05-08 18:05 | 38.31621 | 13.46132 | 7724 ft | 344 kts | 354° |
| 2026-05-08 18:05 | 38.33907 | 13.45643 | 7576 ft | 323 kts | 338° |
| 2026-05-08 18:05 | 38.35866 | 13.44443 | 7436 ft | 304 kts | 323° |
| 2026-05-08 18:06 | 38.37414 | 13.42729 | 7309 ft | 288 kts | 309° |
| 2026-05-08 18:06 | 38.38520 | 13.40683 | 7191 ft | 273 kts | 295° |
| 2026-05-08 18:06 | 38.39177 | 13.38487 | 7082 ft | 260 kts | 283° |
| 2026-05-08 18:06 | 38.39419 | 13.36288 | 6983 ft | 248 kts | 271° |
| 2026-05-08 18:07 | 38.39292 | 13.34147 | 6891 ft | 238 kts | 260° |
| 2026-05-08 18:07 | 38.38840 | 13.32162 | 6802 ft | 228 kts | 249° |
| 2026-05-08 18:07 | 38.38120 | 13.30399 | 6672 ft | 222 kts | 238° |
| 2026-05-08 18:07 | 38.37160 | 13.28858 | 6397 ft | 223 kts | 227° |
| 2026-05-08 18:08 | 38.35980 | 13.27588 | 6196 ft | 218 kts | 216° |
| 2026-05-08 18:08 | 38.34694 | 13.26669 | 6022 ft | 208 kts | 206° |
| 2026-05-08 18:08 | 38.33330 | 13.26066 | 5702 ft | 208 kts | 195° |
| 2026-05-08 18:08 | 38.31896 | 13.25787 | 5353 ft | 209 kts | 185° |
| 2026-05-08 18:09 | 38.30443 | 13.25845 | 5028 ft | 209 kts | 174° |
| 2026-05-08 18:09 | 38.29020 | 13.26239 | 4703 ft | 209 kts | 163° |
| 2026-05-08 18:09 | 38.27661 | 13.26855 | 4362 ft | 207 kts | 172° |
| 2026-05-08 18:09 | 38.26258 | 13.26704 | 3999 ft | 202 kts | 199° |
| 2026-05-08 18:10 | 38.24919 | 13.26143 | 3645 ft | 203 kts | 201° |
| 2026-05-08 18:10 | 38.23671 | 13.25368 | 3246 ft | 198 kts | 220° |
| 2026-05-08 18:10 | 38.22765 | 13.24086 | 2742 ft | 190 kts | 240° |
| 2026-05-08 18:10 | 38.22186 | 13.22736 | 2598 ft | 157 kts | 246° |
| 2026-05-08 18:11 | 38.21765 | 13.21566 | 2327 ft | 137 kts | 250° |
| 2026-05-08 18:11 | 38.21398 | 13.20476 | 1941 ft | 132 kts | 250° |
| 2026-05-08 18:11 | 38.21030 | 13.19394 | 1557 ft | 133 kts | 250° |
| 2026-05-08 18:11 | 38.20679 | 13.18328 | 1185 ft | 132 kts | 249° |
| 2026-05-08 18:12 | 38.20320 | 13.17257 | 948 ft | 131 kts | 249° |
| 2026-05-08 18:12 | 38.19958 | 13.16188 | 815 ft | 132 kts | 248° |
| 2026-05-08 18:12 | 38.19590 | 13.15115 | 659 ft | 133 kts | 248° |
| 2026-05-08 18:12 | 38.19239 | 13.14032 | 468 ft | 132 kts | 248° |
| 2026-05-08 18:13 | 38.18880 | 13.12956 | 260 ft | 132 kts | 247° |
| 2026-05-08 18:13 | 38.18517 | 13.11887 | 94 ft | 131 kts | 247° |
| 2026-05-08 18:13 | 38.18196 | 13.10923 | 51 ft | 95 kts | 247° |
| 2026-05-08 18:13 | 38.18022 | 13.10410 | 49 ft | 42 kts | 247° |
| 2026-05-08 18:14 | 38.18017 | 13.10187 | 53 ft | 23 kts | 284° |
| 2026-05-08 18:14 | 38.18041 | 13.10007 | 51 ft | 15 kts | 275° |
| 2026-05-08 18:14 | 38.18054 | 13.09894 | 52 ft | 13 kts | 296° |
| 2026-05-08 18:14 | 38.18124 | 13.09868 | 53 ft | 11 kts | 44° |
| 2026-05-08 18:15 | 38.18160 | 13.09970 | 53 ft | 14 kts | 68° |
| 2026-05-08 18:15 | 38.18204 | 13.10099 | 49 ft | 17 kts | 67° |
| 2026-05-08 18:15 | 38.18252 | 13.10243 | 50 ft | 19 kts | 67° |
| 2026-05-08 18:15 | 38.18287 | 13.10349 | 52 ft | 11 kts | 67° |
| 2026-05-08 18:16 | 38.18323 | 13.10454 | 47 ft | 14 kts | 62° |
| 2026-05-08 18:16 | 38.18415 | 13.10514 | 53 ft | 12 kts | 20° |
| 2026-05-08 18:16 | 38.18457 | 13.10582 | 52 ft | 8 kts | 63° |
| 2026-05-08 18:16 | 38.18497 | 13.10579 | 49 ft | 7 kts | 327° |
| 2026-05-08 18:17 | 38.18516 | 13.10567 | 50 ft | 1 kts | 337° |
| 2026-05-08 18:17 | 38.18528 | 13.10561 | 53 ft | 2 kts | 337° |
| 2026-05-08 18:17 | 38.18531 | 13.10559 | 53 ft | 0 kts | 337° |